Weather at Kajiado Airport

Public forecast

Using degrees Celsius for public forecast. Weather courtesy of forecast.io.

Closest aviation weather report (METAR) to Kajiado Airport

Report is more than 2 hours old.

Closest report is Nairobi Wilson Airport, 31.8 nm (58.8 km) N.

2024/05/20 19:00 (retrieved 3 hours ago)

HKNW 201900Z 06010KT 9999-RA BKN021 BKN080 18/16 Q1025

Closest aviation forecast (TAF) to Kajiado Airport

Closest forecast is Nairobi Wilson Airport, 31.8 nm (58.8 km) N.

2024/05/20 18:30 (retrieved 4 hours ago)

TAF TAF HKNW 201700Z 2018/2118 VRB02KT 9999 BKN020 BECMG 2100/2104 -RA SCT016 BKN080 BECMG 2106/2109 NSW BKN025